createdAt,value
2022-08-21T00:00:55.759Z,51.09
2022-08-21T00:03:24.507Z,51.15
2022-08-21T00:05:54.453Z,51.00
2022-08-21T00:08:23.350Z,50.90
2022-08-21T00:10:52.273Z,51.03
2022-08-21T00:13:21.771Z,50.80
2022-08-21T00:15:51.086Z,50.67
2022-08-21T00:18:21.543Z,50.94
2022-08-21T00:20:49.997Z,51.05
2022-08-21T00:23:19.075Z,50.95
2022-08-21T00:25:47.705Z,51.04
2022-08-21T00:28:17.246Z,51.15
2022-08-21T00:30:47.066Z,51.10
2022-08-21T00:33:15.639Z,50.91
2022-08-21T00:35:46.080Z,51.63
2022-08-21T00:38:15.514Z,51.12
2022-08-21T00:40:47.894Z,51.32
2022-08-21T00:43:21.613Z,51.52
2022-08-21T00:45:50.121Z,51.70
2022-08-21T00:48:18.700Z,51.58
2022-08-21T00:50:55.495Z,51.50
2022-08-21T00:53:24.587Z,51.83
2022-08-21T00:55:54.016Z,51.48
2022-08-21T00:58:28.496Z,51.72
2022-08-21T01:00:56.998Z,51.80
2022-08-21T01:03:27.257Z,51.90
2022-08-21T01:05:57.255Z,51.56
2022-08-21T01:08:26.125Z,51.94
2022-08-21T01:10:55.974Z,52.17
2022-08-21T01:13:25.655Z,51.96
2022-08-21T01:15:58.740Z,52.05
2022-08-21T01:18:28.115Z,52.40
2022-08-21T01:21:13.553Z,52.00
2022-08-21T01:23:46.774Z,51.96
2022-08-21T01:26:18.510Z,52.11
2022-08-21T01:28:54.062Z,52.27
2022-08-21T01:31:27.744Z,52.00
2022-08-21T01:33:57.947Z,52.02
2022-08-21T01:36:28.461Z,52.22
2022-08-21T01:38:57.090Z,51.80
2022-08-21T01:41:25.560Z,51.71
2022-08-21T01:43:53.958Z,51.99
2022-08-21T01:46:22.325Z,51.61
2022-08-21T01:48:51.362Z,51.80
2022-08-21T01:51:20.357Z,51.89
2022-08-21T01:53:50.273Z,52.05
2022-08-21T01:56:20.114Z,52.05
2022-08-21T01:58:49.954Z,52.23
2022-08-21T02:01:18.743Z,52.21
2022-08-21T02:03:47.297Z,52.35
2022-08-21T02:06:19.099Z,52.24
2022-08-21T02:08:51.508Z,52.53
2022-08-21T02:11:20.288Z,52.42
2022-08-21T02:13:48.734Z,52.21
2022-08-21T02:16:19.378Z,52.30
2022-08-21T02:18:48.830Z,52.48
2022-08-21T02:21:17.369Z,52.73
2022-08-21T02:23:46.368Z,52.77
2022-08-21T02:26:16.296Z,52.57
2022-08-21T02:28:44.765Z,52.70
2022-08-21T02:31:13.759Z,52.94
2022-08-21T02:33:42.763Z,53.23
2022-08-21T02:36:13.017Z,53.48
2022-08-21T02:38:44.008Z,53.57
2022-08-21T02:41:17.383Z,53.55
2022-08-21T02:43:46.420Z,53.53
2022-08-21T02:46:18.390Z,53.89
2022-08-21T02:48:47.375Z,54.12
2022-08-21T02:51:19.577Z,54.40
2022-08-21T02:53:49.590Z,54.34
2022-08-21T02:56:23.469Z,54.39
2022-08-21T02:58:54.656Z,54.76
2022-08-21T03:01:23.164Z,54.78
2022-08-21T03:03:51.982Z,54.44
2022-08-21T03:06:23.552Z,54.34
2022-08-21T03:08:52.157Z,54.45
2022-08-21T03:11:22.252Z,54.37
2022-08-21T03:13:50.651Z,54.21
2022-08-21T03:16:20.536Z,53.75
2022-08-21T03:18:49.118Z,53.62
2022-08-21T03:21:19.915Z,53.56
2022-08-21T03:23:48.387Z,53.69
2022-08-21T03:26:16.890Z,53.52
2022-08-21T03:28:49.800Z,53.33
2022-08-21T03:31:18.690Z,53.33
2022-08-21T03:33:47.191Z,53.09
2022-08-21T03:36:15.571Z,53.00
2022-08-21T03:38:44.448Z,53.00
2022-08-21T03:41:12.855Z,52.98
2022-08-21T03:43:41.255Z,52.92
2022-08-21T03:46:11.940Z,52.70
2022-08-21T03:48:41.705Z,52.56
2022-08-21T03:51:10.441Z,52.57
2022-08-21T03:53:39.011Z,52.19
2022-08-21T03:56:08.783Z,52.29
2022-08-21T03:58:37.239Z,51.99
2022-08-21T04:01:08.171Z,51.75
2022-08-21T04:03:39.604Z,52.08
2022-08-21T04:06:09.420Z,51.94
2022-08-21T04:08:38.117Z,51.74
2022-08-21T04:11:07.713Z,51.99
2022-08-21T04:13:42.249Z,51.92
2022-08-21T04:16:13.283Z,51.58
2022-08-21T04:18:43.803Z,51.43
2022-08-21T04:21:13.701Z,51.38
2022-08-21T04:23:42.571Z,51.42
2022-08-21T04:26:11.151Z,51.19
2022-08-21T04:28:39.617Z,51.30
2022-08-21T04:31:09.734Z,51.30
2022-08-21T04:33:38.207Z,51.07
2022-08-21T04:36:09.176Z,51.15
2022-08-21T04:38:37.900Z,51.15
2022-08-21T04:41:12.608Z,51.19
2022-08-21T04:43:41.403Z,51.11
2022-08-21T04:46:09.748Z,51.14
2022-08-21T04:48:42.710Z,51.35
2022-08-21T04:51:18.177Z,51.22
2022-08-21T04:53:51.239Z,51.06
2022-08-21T04:56:25.918Z,51.18
2022-08-21T04:58:57.814Z,51.27
2022-08-21T05:01:30.258Z,51.13
2022-08-21T05:04:02.129Z,50.86
2022-08-21T05:06:38.026Z,50.91
2022-08-21T05:09:07.632Z,50.94
2022-08-21T05:11:36.227Z,50.99
2022-08-21T05:14:04.720Z,50.76
2022-08-21T05:16:37.163Z,50.81
2022-08-21T05:19:06.708Z,50.69
2022-08-21T05:21:37.766Z,50.57
2022-08-21T05:24:06.448Z,50.45
2022-08-21T05:26:45.505Z,50.26
2022-08-21T05:29:16.592Z,50.08
2022-08-21T05:31:46.119Z,49.58
2022-08-21T05:34:16.248Z,49.50
2022-08-21T05:36:47.611Z,49.52
2022-08-21T05:39:16.855Z,49.55
2022-08-21T05:41:45.298Z,49.52
2022-08-21T05:44:13.752Z,49.58
2022-08-21T05:46:42.223Z,49.39
2022-08-21T05:49:10.938Z,49.60
2022-08-21T05:51:41.343Z,49.48
2022-08-21T05:54:12.060Z,49.41
2022-08-21T05:56:40.440Z,49.43
2022-08-21T05:59:08.960Z,49.54
2022-08-21T06:01:37.616Z,49.52
2022-08-21T06:04:07.143Z,49.48
2022-08-21T06:06:35.982Z,49.48
2022-08-21T06:09:05.222Z,49.52
2022-08-21T06:11:35.564Z,49.63
2022-08-21T06:14:03.989Z,49.50
2022-08-21T06:16:32.610Z,49.68
2022-08-21T06:19:03.099Z,49.54
2022-08-21T06:21:31.773Z,49.45
2022-08-21T06:24:00.368Z,49.41
2022-08-21T06:26:30.229Z,49.43
2022-08-21T06:29:00.097Z,48.80
2022-08-21T06:31:30.221Z,49.11
2022-08-21T06:33:59.300Z,48.83
2022-08-21T06:36:27.823Z,48.95
2022-08-21T06:38:57.860Z,48.74
2022-08-21T06:41:27.059Z,48.71
2022-08-21T06:43:57.295Z,48.69
2022-08-21T06:46:30.464Z,48.78
2022-08-21T06:49:00.105Z,48.57
2022-08-21T06:51:29.514Z,48.65
2022-08-21T06:53:58.808Z,48.40
2022-08-21T06:56:28.009Z,48.28
2022-08-21T06:58:56.473Z,48.36
2022-08-21T07:01:29.132Z,48.30
2022-08-21T07:03:57.915Z,48.38
2022-08-21T07:06:26.786Z,48.40
2022-08-21T07:08:58.946Z,48.29
2022-08-21T07:11:27.995Z,48.18
2022-08-21T07:13:57.633Z,48.27
2022-08-21T07:16:27.713Z,48.35
2022-08-21T07:18:56.120Z,48.39
2022-08-21T07:21:26.178Z,48.07
2022-08-21T07:23:55.491Z,48.11
2022-08-21T07:26:25.629Z,47.98
2022-08-21T07:28:54.590Z,47.96
2022-08-21T07:31:25.510Z,48.09
2022-08-21T07:33:55.592Z,48.15
2022-08-21T07:36:24.489Z,48.18
2022-08-21T07:38:53.174Z,47.94
2022-08-21T07:41:24.200Z,47.91
2022-08-21T07:43:53.250Z,47.91
2022-08-21T07:46:22.847Z,47.89
2022-08-21T07:48:51.222Z,48.02
2022-08-21T07:51:29.997Z,48.22
2022-08-21T07:54:00.842Z,48.42
2022-08-21T07:56:31.976Z,49.43
2022-08-21T07:59:00.505Z,49.40
2022-08-21T08:01:29.078Z,49.88
2022-08-21T08:03:57.948Z,50.37
2022-08-21T08:06:27.923Z,50.85
2022-08-21T08:08:56.307Z,51.47
2022-08-21T08:11:24.894Z,52.04
2022-08-21T08:13:54.765Z,52.29
2022-08-21T08:16:23.212Z,52.28
2022-08-21T08:18:52.453Z,52.41
2022-08-21T08:21:21.997Z,52.36
2022-08-21T08:23:52.388Z,52.63
2022-08-21T08:26:20.841Z,52.35
2022-08-21T08:28:49.734Z,51.98
2022-08-21T08:31:18.124Z,51.78
2022-08-21T08:33:46.548Z,51.52
2022-08-21T08:36:17.319Z,51.04
2022-08-21T08:38:48.849Z,50.83
2022-08-21T08:41:23.810Z,50.53
2022-08-21T08:44:05.227Z,50.38
2022-08-21T08:46:38.593Z,50.14
2022-08-21T08:49:16.051Z,49.61
2022-08-21T08:51:53.018Z,49.41
2022-08-21T08:54:32.604Z,49.69
2022-08-21T08:57:05.068Z,49.56
2022-08-21T08:59:43.727Z,49.34
2022-08-21T09:02:15.220Z,49.13
2022-08-21T09:04:45.577Z,48.32
2022-08-21T09:07:25.262Z,47.70
2022-08-21T09:10:16.375Z,48.01
2022-08-21T09:13:04.437Z,47.16
2022-08-21T09:15:41.022Z,47.25
2022-08-21T09:18:29.607Z,46.96
2022-08-21T09:21:12.096Z,47.56
2022-08-21T09:23:52.254Z,47.55
2022-08-21T09:26:23.739Z,47.81
2022-08-21T09:28:58.361Z,47.98
2022-08-21T09:31:30.694Z,48.40
2022-08-21T09:34:04.691Z,48.22
2022-08-21T09:36:41.113Z,48.63
2022-08-21T09:39:11.435Z,47.89
2022-08-21T09:41:41.558Z,48.72
2022-08-21T09:44:11.580Z,48.94
2022-08-21T09:46:40.074Z,49.07
2022-08-21T09:49:14.907Z,49.39
2022-08-21T09:51:55.752Z,50.33
2022-08-21T09:54:32.517Z,50.82
2022-08-21T09:57:30.465Z,51.73
2022-08-21T10:00:13.173Z,51.78
2022-08-21T10:02:41.609Z,52.41
2022-08-21T10:05:19.675Z,51.90
2022-08-21T10:07:48.203Z,52.14
2022-08-21T10:10:20.642Z,51.60
2022-08-21T10:13:06.187Z,51.30
2022-08-21T10:15:50.154Z,50.83
2022-08-21T10:18:29.996Z,50.49
2022-08-21T10:21:11.383Z,50.41
2022-08-21T10:23:56.719Z,50.36
2022-08-21T10:26:45.035Z,50.37
2022-08-21T10:29:31.127Z,49.99
2022-08-21T10:32:25.650Z,50.53
2022-08-21T10:35:07.685Z,50.24
2022-08-21T10:37:54.164Z,50.38
2022-08-21T10:40:32.005Z,50.50
2022-08-21T10:43:18.809Z,50.52
2022-08-21T10:46:02.304Z,50.60
2022-08-21T10:48:39.139Z,50.51
2022-08-21T10:51:18.075Z,50.72
2022-08-21T10:54:01.857Z,50.99
2022-08-21T10:56:33.680Z,51.31
2022-08-21T10:59:20.933Z,51.84
2022-08-21T11:01:56.934Z,51.56
2022-08-21T11:04:48.925Z,51.66
2022-08-21T11:07:24.774Z,51.18
2022-08-21T11:09:56.426Z,50.92
2022-08-21T11:12:35.437Z,50.71
2022-08-21T11:15:29.272Z,49.78
2022-08-21T11:18:12.280Z,48.06
2022-08-21T11:20:51.087Z,47.17
2022-08-21T11:23:35.924Z,45.82
2022-08-21T11:26:10.129Z,45.07
2022-08-21T11:28:44.908Z,44.92
2022-08-21T11:31:30.557Z,44.18
2022-08-21T11:34:15.499Z,43.99
2022-08-21T11:36:53.925Z,43.58
2022-08-21T11:39:28.934Z,43.22
2022-08-21T11:42:10.762Z,42.99
2022-08-21T11:44:54.927Z,43.54
2022-08-21T11:47:35.289Z,42.74
2022-08-21T11:50:30.002Z,42.82
2022-08-21T11:53:19.629Z,43.01
2022-08-21T11:55:53.105Z,43.30
2022-08-21T11:58:27.586Z,43.08
2022-08-21T12:01:01.045Z,43.61
2022-08-21T12:03:33.079Z,43.82
2022-08-21T12:06:07.648Z,44.04
2022-08-21T12:08:40.450Z,43.72
2022-08-21T12:11:24.024Z,43.83
2022-08-21T12:14:13.185Z,43.99
2022-08-21T12:16:44.171Z,44.52
2022-08-21T12:19:16.737Z,44.22
2022-08-21T12:21:55.502Z,43.70
2022-08-21T12:24:37.891Z,43.99
2022-08-21T12:27:28.433Z,44.48
2022-08-21T12:30:01.487Z,44.42
2022-08-21T12:32:32.180Z,44.79
2022-08-21T12:35:14.153Z,45.04
2022-08-21T12:38:04.359Z,45.46
2022-08-21T12:40:41.831Z,46.03
2022-08-21T12:43:18.459Z,45.95
2022-08-21T12:45:50.147Z,46.59
2022-08-21T12:48:27.231Z,46.38
2022-08-21T12:50:58.655Z,46.69
2022-08-21T12:53:32.626Z,47.00
2022-08-21T12:56:05.178Z,46.79
2022-08-21T12:58:34.069Z,47.06
2022-08-21T13:01:07.096Z,46.93
2022-08-21T13:03:39.146Z,47.24
2022-08-21T13:06:10.638Z,47.33
2022-08-21T13:08:41.838Z,46.63
2022-08-21T13:11:32.757Z,46.91
2022-08-21T13:14:05.377Z,46.66
2022-08-21T13:16:35.658Z,46.61
2022-08-21T13:19:09.602Z,46.59
2022-08-21T13:21:44.038Z,46.79
2022-08-21T13:27:23.563Z,46.91
2022-08-21T13:30:08.912Z,46.65
2022-08-21T13:32:43.051Z,46.95
2022-08-21T13:35:19.022Z,47.05
2022-08-21T13:37:50.980Z,46.49
2022-08-21T13:40:28.889Z,46.52
2022-08-21T13:42:59.678Z,46.42
2022-08-21T13:45:33.060Z,46.93
2022-08-21T13:48:06.465Z,46.60
2022-08-21T13:50:44.926Z,46.81
2022-08-21T13:53:29.640Z,47.01
2022-08-21T13:56:00.989Z,46.66
2022-08-21T13:58:35.802Z,47.02
2022-08-21T14:01:05.032Z,47.18
2022-08-21T14:03:38.896Z,46.80
2022-08-21T14:06:16.656Z,46.69
2022-08-21T14:08:52.846Z,46.81
2022-08-21T14:11:21.957Z,46.12
2022-08-21T14:13:59.134Z,46.19
2022-08-21T14:16:31.561Z,46.48
2022-08-21T14:19:13.398Z,45.79
2022-08-21T14:21:45.145Z,45.61
2022-08-21T14:24:19.333Z,46.02
2022-08-21T14:26:53.587Z,45.62
2022-08-21T14:29:28.497Z,45.70
2022-08-21T14:32:21.709Z,46.03
2022-08-21T14:34:52.740Z,45.21
2022-08-21T14:37:23.193Z,45.20
2022-08-21T14:39:53.589Z,45.13
2022-08-21T14:42:22.660Z,45.04
2022-08-21T14:44:53.210Z,44.93
2022-08-21T14:47:21.694Z,44.55
2022-08-21T14:49:50.339Z,44.99
2022-08-21T14:52:18.822Z,44.95
2022-08-21T14:54:47.202Z,44.55
2022-08-21T14:57:15.711Z,45.07
2022-08-21T14:59:44.625Z,45.16
2022-08-21T15:02:15.077Z,44.48
2022-08-21T15:04:43.867Z,44.54
2022-08-21T15:07:12.608Z,45.05
2022-08-21T15:09:41.077Z,45.09
2022-08-21T15:12:11.025Z,44.83
2022-08-21T15:14:42.643Z,44.99
2022-08-21T15:17:14.835Z,45.26
2022-08-21T15:19:43.534Z,45.13
2022-08-21T15:22:18.860Z,44.95
2022-08-21T15:24:49.604Z,45.42
2022-08-21T15:27:20.774Z,44.99
2022-08-21T15:29:49.587Z,45.24
2022-08-21T15:32:30.815Z,45.34
2022-08-21T15:35:00.926Z,45.08
2022-08-21T15:37:29.839Z,45.24
2022-08-21T15:39:58.331Z,45.22
2022-08-21T15:42:29.477Z,45.31
2022-08-21T15:45:03.554Z,45.44
2022-08-21T15:47:37.609Z,45.09
2022-08-21T15:50:11.459Z,45.01
2022-08-21T15:52:41.606Z,44.87
2022-08-21T15:55:13.676Z,44.51
2022-08-21T15:57:58.101Z,44.55
2022-08-21T16:00:36.521Z,44.56
2022-08-21T16:03:13.431Z,44.39
2022-08-21T16:05:43.449Z,44.62
2022-08-21T16:08:13.167Z,44.56
2022-08-21T16:10:42.330Z,44.33
2022-08-21T16:13:18.671Z,44.59
2022-08-21T16:15:49.877Z,44.40
2022-08-21T16:18:23.318Z,44.79
2022-08-21T16:20:53.964Z,44.83
2022-08-21T16:23:23.400Z,44.57
2022-08-21T16:25:53.074Z,44.84
2022-08-21T16:28:24.882Z,44.40
2022-08-21T16:30:54.252Z,44.74
2022-08-21T16:33:32.967Z,45.02
2022-08-21T16:36:02.944Z,44.77
2022-08-21T16:38:32.775Z,44.87
2022-08-21T16:41:09.002Z,44.93
2022-08-21T16:43:38.023Z,45.19
2022-08-21T16:46:07.278Z,44.83
2022-08-21T16:48:38.231Z,44.82
2022-08-21T16:51:08.040Z,44.53
2022-08-21T16:53:38.019Z,44.81
2022-08-21T16:56:09.094Z,44.99
2022-08-21T16:58:43.193Z,44.58
2022-08-21T17:01:15.744Z,44.91
2022-08-21T17:03:51.154Z,44.66
2022-08-21T17:06:28.058Z,44.78
2022-08-21T17:09:01.179Z,44.74
2022-08-21T17:11:38.029Z,44.59
2022-08-21T17:14:12.271Z,44.81
2022-08-21T17:16:44.122Z,44.41
2022-08-21T17:19:16.568Z,44.51
2022-08-21T17:21:46.674Z,44.69
2022-08-21T17:24:17.604Z,44.76
2022-08-21T17:26:49.480Z,44.50
2022-08-21T17:29:22.264Z,44.64
2022-08-21T17:31:51.072Z,44.51
2022-08-21T17:34:23.387Z,44.60
2022-08-21T17:37:03.077Z,44.66
2022-08-21T17:39:34.946Z,44.46
2022-08-21T17:42:11.117Z,44.37
2022-08-21T17:44:42.654Z,43.92
2022-08-21T17:47:16.723Z,43.93
2022-08-21T17:49:48.773Z,43.56
2022-08-21T17:52:17.847Z,43.45
2022-08-21T17:54:49.534Z,43.57
2022-08-21T17:57:22.893Z,43.47
2022-08-21T17:59:56.370Z,43.45
2022-08-21T18:02:27.212Z,42.96
2022-08-21T18:04:59.846Z,42.92
2022-08-21T18:07:32.303Z,42.96
2022-08-21T18:10:02.696Z,43.10
2022-08-21T18:12:32.238Z,42.43
2022-08-21T18:15:02.370Z,42.33
2022-08-21T18:17:33.660Z,42.11
2022-08-21T18:20:05.420Z,42.20
2022-08-21T18:22:34.699Z,42.51
2022-08-21T18:25:03.152Z,42.18
2022-08-21T18:27:32.135Z,42.23
2022-08-21T18:30:01.922Z,42.26
2022-08-21T18:32:32.251Z,42.50
2022-08-21T18:35:04.721Z,42.49
2022-08-21T18:37:33.391Z,42.09
2022-08-21T18:40:02.127Z,42.38
2022-08-21T18:42:35.825Z,42.06
2022-08-21T18:45:11.596Z,42.33
2022-08-21T18:47:45.473Z,41.88
2022-08-21T18:50:20.808Z,42.12
2022-08-21T18:52:53.567Z,42.01
2022-08-21T18:55:24.680Z,41.50
2022-08-21T18:57:55.307Z,41.50
2022-08-21T19:00:29.272Z,41.62
2022-08-21T19:02:59.382Z,41.38
2022-08-21T19:05:30.064Z,41.66
2022-08-21T19:07:59.227Z,41.56
2022-08-21T19:10:29.591Z,42.04
2022-08-21T19:13:01.674Z,41.87
2022-08-21T19:15:31.145Z,41.82
2022-08-21T19:18:01.012Z,41.92
2022-08-21T19:20:37.263Z,42.04
2022-08-21T19:23:08.555Z,41.96
2022-08-21T19:25:41.867Z,41.81
2022-08-21T19:28:22.989Z,42.26
2022-08-21T19:30:58.854Z,41.60
2022-08-21T19:33:34.575Z,41.81
2022-08-21T19:36:10.137Z,41.70
2022-08-21T19:38:39.886Z,41.99
2022-08-21T19:41:11.788Z,42.24
2022-08-21T19:43:45.967Z,41.82
2022-08-21T19:46:22.064Z,42.29
2022-08-21T19:48:51.450Z,42.26
2022-08-21T19:51:22.046Z,42.23
2022-08-21T19:56:42.059Z,42.06
2022-08-21T19:59:11.428Z,42.13
2022-08-21T20:01:45.636Z,41.95
2022-08-21T20:04:19.362Z,42.11
2022-08-21T20:06:50.621Z,42.12
2022-08-21T20:09:21.373Z,42.27
2022-08-21T20:11:53.372Z,42.26
2022-08-21T20:14:26.826Z,41.94
2022-08-21T20:17:01.950Z,42.24
2022-08-21T20:19:32.297Z,41.89
2022-08-21T20:22:03.247Z,42.13
2022-08-21T20:24:34.057Z,42.16
2022-08-21T20:27:06.176Z,41.90
2022-08-21T20:29:39.324Z,41.62
2022-08-21T20:32:12.259Z,41.91
2022-08-21T20:34:44.949Z,41.82
2022-08-21T20:37:36.799Z,42.05
2022-08-21T20:40:11.738Z,42.11
2022-08-21T20:42:44.866Z,41.87
2022-08-21T20:45:19.616Z,42.26
2022-08-21T20:47:52.496Z,42.66
2022-08-21T20:50:27.339Z,43.08
2022-08-21T20:53:06.774Z,43.08
2022-08-21T20:55:42.339Z,43.56
2022-08-21T20:58:20.645Z,43.84
2022-08-21T21:00:51.956Z,44.13
2022-08-21T21:03:30.609Z,44.48
2022-08-21T21:06:04.520Z,44.76
2022-08-21T21:08:41.211Z,45.15
2022-08-21T21:11:22.471Z,45.42
2022-08-21T21:13:57.693Z,45.55
2022-08-21T21:16:32.092Z,45.87
2022-08-21T21:19:04.113Z,46.33
2022-08-21T21:21:36.965Z,46.66
2022-08-21T21:24:13.750Z,46.97
2022-08-21T21:26:49.852Z,47.32
2022-08-21T21:29:24.702Z,47.59
2022-08-21T21:31:54.869Z,47.96
2022-08-21T21:34:24.748Z,48.61
2022-08-21T21:37:02.824Z,48.78
2022-08-21T21:39:39.096Z,49.04
2022-08-21T21:42:30.291Z,49.54
2022-08-21T21:45:28.238Z,49.52
2022-08-21T21:48:19.235Z,49.93
2022-08-21T21:51:00.866Z,50.26
2022-08-21T21:53:54.349Z,50.23
2022-08-21T21:56:36.885Z,50.29
2022-08-21T21:59:29.913Z,50.38
2022-08-21T22:02:06.809Z,50.93
2022-08-21T22:07:40.687Z,51.62
2022-08-21T22:10:30.563Z,51.54
2022-08-21T22:13:14.466Z,51.96
2022-08-21T22:15:55.543Z,52.33
2022-08-21T22:18:31.881Z,52.17
2022-08-21T22:21:05.638Z,52.57
2022-08-21T22:23:44.116Z,52.67
2022-08-21T22:26:17.662Z,53.02
2022-08-21T22:28:50.909Z,53.45
2022-08-21T22:31:22.720Z,53.89
2022-08-21T22:34:17.705Z,53.84
2022-08-21T22:36:51.723Z,54.06
2022-08-21T22:39:39.071Z,54.15
2022-08-21T22:42:13.969Z,54.08
2022-08-21T22:44:56.214Z,54.52
2022-08-21T22:47:32.339Z,54.86
2022-08-21T22:52:54.790Z,55.38
2022-08-21T22:55:28.778Z,55.38
2022-08-21T22:58:12.470Z,55.55
2022-08-21T23:00:54.418Z,55.60
2022-08-21T23:03:33.796Z,55.80
2022-08-21T23:08:54.807Z,56.46
2022-08-21T23:11:30.351Z,56.61
2022-08-21T23:14:00.568Z,56.66
2022-08-21T23:16:47.361Z,57.10
2022-08-21T23:19:28.870Z,56.88
2022-08-21T23:22:16.385Z,57.36
2022-08-21T23:24:59.520Z,57.40
2022-08-21T23:27:44.811Z,57.39
2022-08-21T23:30:18.852Z,57.60
2022-08-21T23:33:25.274Z,57.40
2022-08-21T23:36:37.536Z,58.10
2022-08-21T23:39:26.224Z,58.36
2022-08-21T23:42:05.115Z,58.76
2022-08-21T23:44:54.880Z,58.89
2022-08-21T23:47:41.248Z,58.70
2022-08-21T23:50:15.374Z,59.13
2022-08-21T23:53:09.221Z,59.24
2022-08-21T23:55:54.994Z,59.47
2022-08-21T23:58:37.398Z,59.55
